Nearby METAR Reports

 

KPAE - Everett, Washington, USA
Distance from station: NW 15mi, 25km
Updated: 10/19/2020 6:53pm
Overcast
Overcast
 Wind from varies
Wind: varies 3 mph , 6 km/h
Temperature: 52°F , 11°C
Dew Point: 46°F , 8°C
Humidity: 82%
Barometer: 30.19 inHg , 1022.4 hPa
Clouds: Overcast
Visibility: 10 miles , 16 km
Cloud details: Overcast 7000 ft
2020/10/20 01:53 KPAE 200153Z VRB03KT 10SM OVC070 11/08 A3019 RMK AO2 SLP223 T01060078
KBFI - Seattle/Boeing, Washington, USA
Distance from station: SW 20mi, 31km
Updated: 10/19/2020 6:53pm
Overcast
Overcast
 Wind from ENE
Wind: ENE 6 mph , 9 km/h
Temperature: 54°F , 12°C
Dew Point: 48°F , 9°C
Humidity: 82%
Barometer: 30.18 inHg , 1022 hPa
Clouds: Overcast
Visibility: 10 miles , 16 km
Cloud details: Few Clouds 1500 ft
Mostly cloudy 2300 ft
Overcast 3200 ft
2020/10/20 01:53 KBFI 200153Z 06005KT 10SM FEW015 BKN023 OVC032 12/09 A3018 RMK AO2 RAB02E23 SLP219 P0000 T01170089
KSEA - Seattle/Metro, Washington, USA
Distance from station: SSW 25mi, 41km
Updated: 10/19/2020 7:29pm
Overcast
Overcast
 Wind from ENE
Wind: ENE 5 mph , 7 km/h
Temperature: 54°F , 12°C
Dew Point: 48°F , 9°C
Humidity: 82%
Barometer: 30.18 inHg , 1022 hPa
Clouds: Overcast
Visibility: 9 miles , 14 km
Cloud details: Mostly cloudy 2600 ft
Overcast 4000 ft
2020/10/20 02:29 KSEA 200229Z 06004KT 9SM BKN026 OVC040 12/09 A3018 RMK AO2 T01170089 $
 
KAWO - Arlington Muni, Washington, USA
Distance from station: NNW 28mi, 46km
Updated: 10/19/2020 7:20pm
Overcast
Overcast
 Wind from WNW
Wind: WNW 5 mph , 7 km/h
Temperature: 52°F , 11°C
Dew Point: 46°F , 8°C
Humidity: 82%
Barometer: 30.19 inHg , 1022.4 hPa
Clouds: Overcast
Visibility: 10 miles , 16 km
Cloud details: Mostly cloudy 2700 ft
Mostly cloudy 5000 ft
Overcast 6500 ft
2020/10/20 02:20 KAWO 200220Z AUTO 30004KT 10SM BKN027 BKN050 OVC065 11/08 A3019 RMK AO2
KPWT - Bremerton Ntnl, Washington, USA
Distance from station: WSW 38mi, 61km
Updated: 10/19/2020 7:13pm
Overcast
Overcast
 Wind from ENE
Wind: ENE 10 mph , 17 km/h
Temperature: 52°F , 11°C
Dew Point: 48°F , 9°C
Humidity: 88%
Barometer: 30.18 inHg , 1022 hPa
Clouds: Overcast
Visibility: 10 miles , 16 km
Cloud details: Few Clouds 700 ft
Mostly cloudy 2400 ft
Overcast 4900 ft
2020/10/20 02:13 KPWT 200213Z AUTO 06009KT 10SM FEW007 BKN024 OVC049 11/09 A3018 RMK AO2 $
KTIW - Tacoma, Washington, USA
Distance from station: SW 43mi, 69km
Updated: 10/19/2020 6:53pm
Mostly cloudy
Mostly cloudy
 Wind from SW
Wind: SW 9 mph , 15 km/h
Temperature: 54°F , 12°C
Dew Point: 45°F , 7°C
Humidity: 72%
Barometer: 30.17 inHg , 1021.7 hPa
Clouds: Mostly cloudy
Visibility: 10 miles , 16 km
Cloud details: Partly cloudy 2500 ft
Mostly cloudy 4600 ft
Mostly cloudy 8000 ft
2020/10/20 01:53 KTIW 200153Z 23008KT 10SM SCT025 BKN046 BKN080 12/07 A3017 RMK AO2 SLP218 T01170072
 
KPLU - Puyallup/Thun, Washington, USA
Distance from station: SSW 47mi, 76km
Updated: 10/19/2020 7:15pm
Overcast
Overcast
 Wind from varies
Wind: varies 5 mph , 7 km/h, Gust: 14 mph , 22 km/h
Temperature: 55°F , 13°C
Dew Point: 48°F , 9°C
Humidity: 77%
Barometer: 30.19 inHg , 1022.4 hPa
Clouds: Overcast
Visibility: 10 miles , 16 km
Cloud details: Few Clouds 2900 ft
Mostly cloudy 3500 ft
Overcast 7000 ft
2020/10/20 02:15 KPLU 200215Z AUTO VRB04G12KT 10SM FEW029 BKN035 OVC070 13/09 A3019 RMK AO2
KSMP - Stampede Pass, Washington, USA
Distance from station: SE 47mi, 76km
Updated: 10/19/2020 7:35pm
Light rain, Mist, Overcast
Light rain, Mist, Overcast
 Wind from W
Wind: W 8 mph , 13 km/h, Gust: 24 mph , 39 km/h
Temperature: 39°F , 4°C
Wind Chill: 33°F , 1°C
Dew Point: 37°F , 3°C
Humidity: 93%
Barometer: 30.09 inHg , 1019 hPa
Summary: Light rain, Mist
Clouds: Overcast
Visibility: 3/4 mile , 1.2 km
Cloud details: Mostly cloudy 400 ft
Overcast 900 ft
2020/10/20 02:35 KSMP 200235Z AUTO 27007G21KT 230V300 3/4SM -RA BR BKN004 OVC009 04/03 A3009 RMK AO2 P0003 T00440033 $
KNUW - Whidbey Is. Nas, Washington, USA
Distance from station: NW 49mi, 79km
Updated: 10/19/2020 6:56pm
Mostly cloudy
Mostly cloudy
 Wind from W
Wind: W 20 mph , 31 km/h
Temperature: 54°F , 12°C
Dew Point: 45°F , 7°C
Humidity: 72%
Barometer: 30.20 inHg , 1022.7 hPa
Clouds: Mostly cloudy
Visibility: 10 miles , 16 km
Cloud details: Few Clouds 5000 ft
Partly cloudy 11000 ft
Mostly cloudy 20000 ft
2020/10/20 01:56 KNUW 200156Z 27017KT 10SM FEW050 SCT110 BKN200 12/07 A3020 RMK AO2 PK WND 27028/0113 SLP225 T01170072 $
 
KBVS - Burlington/Mt V, Washington, USA
Distance from station: NNW 51mi, 83km
Updated: 10/19/2020 7:15pm
Mostly cloudy
Mostly cloudy
 Wind from calm
Wind: Calm
Temperature: 52°F , 11°C
Dew Point: 46°F , 8°C
Humidity: 82%
Barometer: 30.17 inHg , 1021.7 hPa
Clouds: Mostly cloudy
Visibility: 10 miles , 16 km
Cloud details: Mostly cloudy 4700 ft
Mostly cloudy 5500 ft
2020/10/20 02:15 KBVS 200215Z AUTO 00000KT 10SM BKN047 BKN055 11/08 A3017 RMK A01
KSHN - Shelton, Washington, USA
Distance from station: SW 63mi, 101km
Updated: 10/19/2020 6:53pm
Few Clouds
Few Clouds
 Wind from WSW
Wind: WSW 15 mph , 24 km/h
Temperature: 54°F , 12°C
Dew Point: 46°F , 8°C
Humidity: 77%
Barometer: 30.15 inHg , 1021 hPa
Clouds: Few Clouds
Visibility: 10 miles , 16 km
Cloud details: Few Clouds 11000 ft
2020/10/20 01:53 KSHN 200153Z AUTO 25013KT 10SM FEW110 12/08 A3015 RMK AO2 SLP210 T01170083
KOLM - Olympia, Washington, USA
Distance from station: SW 68mi, 110km
Updated: 10/19/2020 6:54pm
Overcast
Overcast
 Wind from W
Wind: W 12 mph , 19 km/h, Gust: 20 mph , 31 km/h
Temperature: 55°F , 13°C
Dew Point: 45°F , 7°C
Humidity: 67%
Barometer: 30.18 inHg , 1022 hPa
Clouds: Overcast
Visibility: 9 miles , 14 km
Cloud details: Overcast 11000 ft
2020/10/20 01:54 KOLM 200154Z 26010G17KT 9SM OVC110 13/07 A3018 RMK AO2 SLP219 T01280072
 
KCLM - Port Angeles, Washington, USA
Distance from station: WNW 72mi, 115km
Updated: 10/19/2020 6:53pm
Clear
Clear
 Wind from WNW
Wind: WNW 8 mph , 13 km/h
Temperature: 52°F , 11°C
Dew Point: 43°F , 6°C
Humidity: 72%
Barometer: 30.19 inHg , 1022.4 hPa
Clouds: Clear
Visibility: 10 miles , 16 km
2020/10/20 01:53 KCLM 200153Z AUTO 29007KT 10SM CLR 11/06 A3019 RMK AO2 SLP225 T01110056
CWYJ - Victoria Univ, British Columbia, Canada
Distance from station: NW 75mi, 121km
Updated: 10/19/2020 7:00pm

 Wind from WSW
Wind: WSW 3 mph , 6 km/h
Temperature: 50°F , 10°C
Dew Point: 45°F , 7°C
Humidity: 82%
2020/10/20 02:00 CWYJ 200200Z AUTO 25003KT 10/07 RMK AO1 SLP215 T01040073 53002
KBLI - Bellingham, Washington, USA
Distance from station: NNW 75mi, 121km
Updated: 10/19/2020 6:53pm
Overcast
Overcast
 Wind from S
Wind: S 7 mph , 11 km/h
Temperature: 52°F , 11°C
Dew Point: 46°F , 8°C
Humidity: 82%
Barometer: 30.15 inHg , 1021 hPa
Clouds: Overcast
Visibility: 10 miles , 16 km
Cloud details: Overcast 8000 ft
2020/10/20 01:53 KBLI 200153Z 17006KT 10SM OVC080 11/08 A3015 RMK AO2 SLP216 T01110078